createdAt,value
2018-08-31T00:02:01.242Z,23.19
2018-08-31T00:05:41.141Z,23.17
2018-08-31T00:08:21.510Z,23.16
2018-08-31T00:11:05.635Z,23.16
2018-08-31T00:13:34.760Z,23.14
2018-08-31T00:16:03.819Z,23.15
2018-08-31T00:18:32.951Z,23.15
2018-08-31T00:21:02.044Z,23.15
2018-08-31T00:24:40.440Z,23.16
2018-08-31T00:27:20.783Z,23.14
2018-08-31T00:30:01.056Z,23.13
2018-08-31T00:34:45.080Z,23.11
2018-08-31T00:37:24.824Z,23.09
2018-08-31T00:41:04.737Z,23.08
2018-08-31T00:43:48.819Z,23.08
2018-08-31T00:46:17.992Z,23.07
2018-08-31T00:48:47.043Z,23.08
2018-08-31T00:51:16.208Z,23.06
2018-08-31T00:53:45.471Z,23.09
2018-08-31T00:56:14.571Z,23.08
2018-08-31T00:58:43.641Z,23.10
2018-08-31T01:01:12.767Z,23.09
2018-08-31T01:03:41.995Z,23.08
2018-08-31T01:06:11.263Z,23.09
2018-08-31T01:08:40.403Z,23.09
2018-08-31T01:11:09.484Z,23.08
2018-08-31T01:13:38.547Z,23.08
2018-08-31T01:16:07.676Z,23.08
2018-08-31T01:18:36.930Z,23.07
2018-08-31T01:21:06.570Z,23.08
2018-08-31T01:23:35.783Z,23.06
2018-08-31T01:26:05.147Z,23.07
2018-08-31T01:28:34.270Z,23.07
2018-08-31T01:31:03.664Z,23.06
2018-08-31T01:33:32.723Z,23.06
2018-08-31T01:36:01.847Z,23.04
2018-08-31T01:38:30.978Z,23.04
2018-08-31T01:40:59.969Z,23.06
2018-08-31T01:43:29.036Z,23.04
2018-08-31T01:45:58.165Z,23.05
2018-08-31T01:48:27.226Z,23.04
2018-08-31T01:51:01.722Z,23.04
2018-08-31T01:53:30.887Z,23.02
2018-08-31T01:55:59.946Z,23.02
2018-08-31T01:58:28.949Z,23.02
2018-08-31T02:00:58.248Z,23.03
2018-08-31T02:03:27.451Z,23.03
2018-08-31T02:05:56.833Z,23.02
2018-08-31T02:08:26.376Z,23.01
2018-08-31T02:10:55.461Z,23.02
2018-08-31T02:13:24.681Z,23.01
2018-08-31T02:15:53.731Z,23.01
2018-08-31T02:18:22.905Z,23.00
2018-08-31T02:20:52.030Z,23.01
2018-08-31T02:23:21.127Z,22.99
2018-08-31T02:25:50.231Z,22.98
2018-08-31T02:28:19.236Z,22.98
2018-08-31T02:30:48.310Z,22.98
2018-08-31T02:33:17.378Z,22.98
2018-08-31T02:35:46.446Z,22.98
2018-08-31T02:38:15.590Z,22.98
2018-08-31T02:40:44.718Z,22.97
2018-08-31T02:43:13.777Z,22.98
2018-08-31T02:45:43.093Z,22.96
2018-08-31T02:48:12.247Z,22.97
2018-08-31T02:50:41.319Z,22.96
2018-08-31T02:53:10.417Z,22.96
2018-08-31T02:55:39.492Z,22.96
2018-08-31T02:58:08.809Z,22.97
2018-08-31T03:00:37.975Z,22.97
2018-08-31T03:03:07.462Z,22.96
2018-08-31T03:05:36.537Z,22.96
2018-08-31T03:08:05.697Z,22.96
2018-08-31T03:10:34.756Z,22.94
2018-08-31T03:13:03.959Z,22.94
2018-08-31T03:15:33.040Z,22.94
2018-08-31T03:18:02.095Z,22.93
2018-08-31T03:20:31.166Z,22.94
2018-08-31T03:23:00.266Z,22.94
2018-08-31T03:25:29.444Z,22.92
2018-08-31T03:27:58.548Z,22.93
2018-08-31T03:30:27.635Z,22.91
2018-08-31T03:32:56.709Z,22.92
2018-08-31T03:35:25.819Z,22.91
2018-08-31T03:37:55.292Z,22.91
2018-08-31T03:40:24.904Z,22.90
2018-08-31T03:42:53.990Z,22.91
2018-08-31T03:45:23.143Z,22.90
2018-08-31T03:47:52.320Z,22.90
2018-08-31T03:50:21.432Z,22.91
2018-08-31T03:52:50.525Z,22.89
2018-08-31T03:55:19.519Z,22.90
2018-08-31T03:57:49.032Z,22.89
2018-08-31T04:00:18.114Z,22.89
2018-08-31T04:02:47.320Z,22.89
2018-08-31T04:05:16.369Z,22.89
2018-08-31T04:07:45.424Z,22.90
2018-08-31T04:10:14.495Z,22.89
2018-08-31T04:12:43.520Z,22.87
2018-08-31T04:15:12.725Z,22.88
2018-08-31T04:17:41.990Z,22.87
2018-08-31T04:20:11.043Z,22.89
2018-08-31T04:22:40.193Z,22.87
2018-08-31T04:25:09.277Z,22.86
2018-08-31T04:27:38.414Z,22.86
2018-08-31T04:30:07.908Z,22.87
2018-08-31T04:32:36.939Z,22.87
2018-08-31T04:35:06.400Z,22.85
2018-08-31T04:37:35.506Z,22.85
2018-08-31T04:40:05.938Z,22.85
2018-08-31T04:42:35.086Z,22.85
2018-08-31T04:45:04.195Z,22.87
2018-08-31T04:47:33.306Z,22.88
2018-08-31T04:50:02.514Z,22.85
2018-08-31T04:52:31.682Z,22.86
2018-08-31T04:55:00.882Z,22.85
2018-08-31T04:57:29.980Z,22.83
2018-08-31T04:59:59.068Z,22.85
2018-08-31T05:02:28.180Z,22.87
2018-08-31T05:04:57.262Z,22.88
2018-08-31T05:07:26.333Z,22.88
2018-08-31T05:09:55.465Z,22.90
2018-08-31T05:12:24.647Z,22.90
2018-08-31T05:14:53.764Z,22.88
2018-08-31T05:17:22.993Z,22.89
2018-08-31T05:19:52.178Z,22.90
2018-08-31T05:22:21.324Z,22.88
2018-08-31T05:24:50.620Z,22.87
2018-08-31T05:27:19.679Z,22.88
2018-08-31T05:29:48.684Z,22.87
2018-08-31T05:32:17.830Z,22.87
2018-08-31T05:34:46.947Z,22.86
2018-08-31T05:37:16.250Z,22.86
2018-08-31T05:39:45.342Z,22.86
2018-08-31T05:42:14.531Z,22.86
2018-08-31T05:44:43.620Z,22.86
2018-08-31T05:47:12.723Z,22.86
2018-08-31T05:49:41.723Z,22.86
2018-08-31T05:52:10.790Z,22.86
2018-08-31T05:54:39.932Z,22.85
2018-08-31T05:57:09.017Z,22.86
2018-08-31T05:59:38.103Z,22.85
2018-08-31T06:02:07.207Z,22.87
2018-08-31T06:04:36.425Z,22.86
2018-08-31T06:07:05.499Z,22.86
2018-08-31T06:09:34.589Z,22.86
2018-08-31T06:12:03.737Z,22.86
2018-08-31T06:14:33.008Z,22.87
2018-08-31T06:17:02.107Z,22.87
2018-08-31T06:19:31.445Z,22.88
2018-08-31T06:22:00.744Z,22.88
2018-08-31T06:24:29.731Z,22.88
2018-08-31T06:26:58.847Z,22.88
2018-08-31T06:29:28.199Z,22.87
2018-08-31T06:31:57.278Z,22.87
2018-08-31T06:34:26.387Z,22.88
2018-08-31T06:36:55.461Z,22.88
2018-08-31T06:39:24.658Z,22.89
2018-08-31T06:41:53.738Z,22.89
2018-08-31T06:44:22.802Z,22.90
2018-08-31T06:46:51.950Z,22.90
2018-08-31T06:49:21.056Z,22.91
2018-08-31T06:51:50.261Z,22.93
2018-08-31T06:54:19.431Z,22.94
2018-08-31T06:56:48.869Z,22.96
2018-08-31T06:59:17.940Z,23.01
2018-08-31T07:01:47.110Z,23.03
2018-08-31T07:04:16.232Z,23.08
2018-08-31T07:06:45.419Z,23.13
2018-08-31T07:09:14.499Z,23.15
2018-08-31T07:11:43.633Z,23.20
2018-08-31T07:14:12.830Z,23.23
2018-08-31T07:16:42.041Z,23.24
2018-08-31T07:19:11.163Z,23.32
2018-08-31T07:21:40.438Z,23.37
2018-08-31T07:24:09.464Z,23.37
2018-08-31T07:26:38.612Z,23.36
2018-08-31T07:29:07.932Z,23.36
2018-08-31T07:31:37.003Z,23.44
2018-08-31T07:34:06.484Z,23.47
2018-08-31T07:36:35.491Z,23.46
2018-08-31T07:39:06.629Z,23.47
2018-08-31T07:41:35.739Z,23.50
2018-08-31T07:44:04.811Z,23.52
2018-08-31T07:46:33.939Z,23.55
2018-08-31T07:49:03.351Z,23.54
2018-08-31T07:51:32.441Z,23.56
2018-08-31T07:54:01.689Z,23.57
2018-08-31T07:56:31.061Z,23.60
2018-08-31T07:59:00.119Z,23.59
2018-08-31T08:01:29.237Z,23.62
2018-08-31T08:03:58.404Z,23.62
2018-08-31T08:06:27.487Z,23.62
2018-08-31T08:08:57.445Z,23.63
2018-08-31T08:11:26.537Z,23.65
2018-08-31T08:13:55.639Z,23.64
2018-08-31T08:16:24.638Z,23.65
2018-08-31T08:18:53.731Z,23.65
2018-08-31T08:21:22.812Z,23.66
2018-08-31T08:23:51.892Z,23.68
2018-08-31T08:26:21.038Z,23.70
2018-08-31T08:28:50.091Z,23.71
2018-08-31T08:31:19.161Z,23.74
2018-08-31T08:33:48.249Z,23.69
2018-08-31T08:36:17.319Z,23.71
2018-08-31T08:38:46.520Z,23.70
2018-08-31T08:41:15.911Z,23.69
2018-08-31T08:43:44.969Z,23.69
2018-08-31T08:46:14.068Z,23.69
2018-08-31T08:48:43.383Z,23.69
2018-08-31T08:51:12.499Z,23.69
2018-08-31T08:53:41.596Z,23.70
2018-08-31T08:56:10.807Z,23.71
2018-08-31T08:58:39.892Z,23.66
2018-08-31T09:01:08.960Z,23.71
2018-08-31T09:03:38.038Z,23.74
2018-08-31T09:06:07.150Z,23.74
2018-08-31T09:08:36.264Z,23.71
2018-08-31T09:11:06.403Z,23.73
2018-08-31T09:13:35.695Z,23.70
2018-08-31T09:16:04.755Z,23.78
2018-08-31T09:18:34.052Z,23.77
2018-08-31T09:21:03.291Z,23.75
2018-08-31T09:23:32.360Z,23.75
2018-08-31T09:26:04.181Z,23.72
2018-08-31T09:28:33.443Z,23.67
2018-08-31T09:31:04.059Z,23.65
2018-08-31T09:33:33.162Z,23.67
2018-08-31T09:36:02.244Z,23.64
2018-08-31T09:38:31.353Z,23.65
2018-08-31T09:41:00.525Z,23.62
2018-08-31T09:43:29.654Z,23.60
2018-08-31T09:45:58.727Z,23.61
2018-08-31T09:48:27.928Z,23.63
2018-08-31T09:50:57.119Z,23.61
2018-08-31T09:53:26.199Z,23.61
2018-08-31T09:55:55.441Z,23.62
2018-08-31T09:58:24.858Z,23.63
2018-08-31T10:00:54.979Z,23.65
2018-08-31T10:03:25.429Z,23.61
2018-08-31T10:05:55.662Z,23.62
2018-08-31T10:08:26.415Z,23.64
2018-08-31T10:10:55.582Z,23.63
2018-08-31T10:13:25.446Z,23.63
2018-08-31T10:15:54.740Z,23.62
2018-08-31T10:18:23.936Z,23.60
2018-08-31T10:20:53.155Z,23.64
2018-08-31T10:23:22.331Z,23.67
2018-08-31T10:25:51.528Z,23.68
2018-08-31T10:28:20.706Z,23.64
2018-08-31T10:30:49.744Z,23.65
2018-08-31T10:33:18.860Z,23.62
2018-08-31T10:35:47.931Z,23.64
2018-08-31T10:38:17.108Z,23.67
2018-08-31T10:40:46.319Z,23.64
2018-08-31T10:43:15.367Z,23.63
2018-08-31T10:45:44.475Z,23.61
2018-08-31T10:48:13.621Z,23.67
2018-08-31T10:50:42.759Z,23.68
2018-08-31T10:53:11.920Z,23.71
2018-08-31T10:55:40.991Z,23.71
2018-08-31T10:58:10.108Z,23.68
2018-08-31T11:00:39.271Z,23.70
2018-08-31T11:03:08.351Z,23.75
2018-08-31T11:05:37.603Z,23.71
2018-08-31T11:08:06.780Z,23.69
2018-08-31T11:10:35.863Z,23.68
2018-08-31T11:13:05.034Z,23.70
2018-08-31T11:15:34.266Z,23.68
2018-08-31T11:18:03.591Z,23.66
2018-08-31T11:20:32.675Z,23.68
2018-08-31T11:23:01.770Z,23.66
2018-08-31T11:25:31.186Z,23.64
2018-08-31T11:28:00.280Z,23.64
2018-08-31T11:30:29.454Z,23.66
2018-08-31T11:32:58.764Z,23.65
2018-08-31T11:35:27.879Z,23.65
2018-08-31T11:37:57.321Z,23.64
2018-08-31T11:40:26.666Z,23.65
2018-08-31T11:42:55.780Z,23.74
2018-08-31T11:45:24.856Z,23.76
2018-08-31T11:47:54.235Z,23.76
2018-08-31T11:50:23.507Z,23.78
2018-08-31T11:52:53.648Z,23.76
2018-08-31T11:55:22.761Z,23.77
2018-08-31T11:57:52.042Z,23.75
2018-08-31T12:00:21.332Z,23.75
2018-08-31T12:02:50.424Z,23.79
2018-08-31T12:05:19.550Z,23.78
2018-08-31T12:07:48.816Z,23.81
2018-08-31T12:10:18.032Z,23.85
2018-08-31T12:12:47.166Z,23.83
2018-08-31T12:15:16.418Z,23.88
2018-08-31T12:17:45.480Z,23.88
2018-08-31T12:20:14.572Z,23.90
2018-08-31T12:22:43.664Z,23.87
2018-08-31T12:25:12.768Z,23.92
2018-08-31T12:27:44.583Z,23.94
2018-08-31T12:30:14.746Z,23.93
2018-08-31T12:32:43.910Z,23.93
2018-08-31T12:35:13.055Z,23.93
2018-08-31T12:37:42.105Z,23.89
2018-08-31T12:40:11.253Z,23.84
2018-08-31T12:42:40.527Z,23.89
2018-08-31T12:45:09.656Z,23.88
2018-08-31T12:47:38.808Z,23.90
2018-08-31T12:50:08.006Z,23.87
2018-08-31T12:52:37.121Z,23.87
2018-08-31T12:55:06.377Z,23.85
2018-08-31T12:57:35.500Z,23.84
2018-08-31T13:00:04.669Z,23.86
2018-08-31T13:02:33.892Z,23.84
2018-08-31T13:05:03.124Z,23.83
2018-08-31T13:07:32.194Z,23.90
2018-08-31T13:10:01.310Z,23.93
2018-08-31T13:12:30.480Z,23.63
2018-08-31T13:14:59.558Z,23.29
2018-08-31T13:17:28.682Z,23.10
2018-08-31T13:19:57.923Z,22.57
2018-08-31T13:22:27.091Z,22.81
2018-08-31T13:24:56.174Z,22.89
2018-08-31T13:27:25.264Z,22.77
2018-08-31T13:29:54.378Z,22.92
2018-08-31T13:32:23.465Z,22.64
2018-08-31T13:34:52.542Z,22.19
2018-08-31T13:37:21.654Z,22.06
2018-08-31T13:39:50.744Z,22.29
2018-08-31T13:42:19.934Z,22.11
2018-08-31T13:44:48.931Z,22.34
2018-08-31T13:47:18.014Z,22.47
2018-08-31T13:49:47.117Z,22.55
2018-08-31T13:52:16.193Z,22.24
2018-08-31T13:54:45.328Z,22.17
2018-08-31T13:57:14.410Z,22.37
2018-08-31T13:59:43.632Z,22.49
2018-08-31T14:02:12.706Z,22.54
2018-08-31T14:04:41.802Z,22.44
2018-08-31T14:07:10.917Z,22.47
2018-08-31T14:09:40.119Z,22.35
2018-08-31T14:12:09.240Z,22.33
2018-08-31T14:14:38.412Z,22.43
2018-08-31T14:17:07.585Z,22.54
2018-08-31T14:19:36.786Z,22.39
2018-08-31T14:22:05.854Z,22.42
2018-08-31T14:24:34.982Z,22.23
2018-08-31T14:27:04.244Z,22.21
2018-08-31T14:29:33.545Z,22.21
2018-08-31T14:32:02.656Z,22.31
2018-08-31T14:34:31.791Z,22.23
2018-08-31T14:37:00.828Z,22.33
2018-08-31T14:39:29.970Z,22.39
2018-08-31T14:41:59.074Z,22.48
2018-08-31T14:44:28.223Z,22.48
2018-08-31T14:47:03.748Z,22.48
2018-08-31T14:49:32.892Z,22.44
2018-08-31T14:52:02.102Z,22.33
2018-08-31T14:54:31.259Z,22.14
2018-08-31T14:57:00.378Z,22.30
2018-08-31T14:59:29.568Z,22.34
2018-08-31T15:01:58.652Z,22.43
2018-08-31T15:04:27.816Z,22.42
2018-08-31T15:06:56.887Z,22.47
2018-08-31T15:09:26.062Z,22.49
2018-08-31T15:11:55.390Z,22.58
2018-08-31T15:14:24.587Z,22.66
2018-08-31T15:16:53.691Z,22.72
2018-08-31T15:19:22.838Z,22.76
2018-08-31T15:21:51.980Z,22.82
2018-08-31T15:24:21.175Z,22.86
2018-08-31T15:26:50.243Z,22.90
2018-08-31T15:29:19.362Z,22.92
2018-08-31T15:31:48.461Z,22.95
2018-08-31T15:34:17.750Z,22.98
2018-08-31T15:36:47.063Z,23.03
2018-08-31T15:39:16.270Z,23.06
2018-08-31T15:41:45.367Z,23.08
2018-08-31T15:44:14.627Z,23.10
2018-08-31T15:46:43.727Z,23.15
2018-08-31T15:49:12.867Z,23.18
2018-08-31T15:51:42.066Z,23.21
2018-08-31T15:54:11.161Z,23.24
2018-08-31T15:56:40.212Z,23.27
2018-08-31T15:59:09.295Z,23.31
2018-08-31T16:01:38.362Z,23.33
2018-08-31T16:04:07.433Z,23.36
2018-08-31T16:06:36.503Z,23.38
2018-08-31T16:09:07.488Z,23.38
2018-08-31T16:11:36.856Z,23.40
2018-08-31T16:14:05.930Z,23.42
2018-08-31T16:16:35.019Z,23.43
2018-08-31T16:19:04.219Z,23.45
2018-08-31T16:21:33.453Z,23.45
2018-08-31T16:24:02.691Z,23.46
2018-08-31T16:26:31.944Z,23.48
2018-08-31T16:29:01.071Z,23.50
2018-08-31T16:31:30.299Z,23.53
2018-08-31T16:33:59.454Z,23.52
2018-08-31T16:36:28.526Z,23.54
2018-08-31T16:38:57.727Z,23.55
2018-08-31T16:41:27.027Z,23.58
2018-08-31T16:43:56.111Z,23.58
2018-08-31T16:46:25.215Z,23.56
2018-08-31T16:48:54.263Z,23.59
2018-08-31T16:51:23.741Z,23.61
2018-08-31T16:53:52.812Z,23.61
2018-08-31T16:56:22.015Z,23.64
2018-08-31T16:58:51.127Z,23.65
2018-08-31T17:01:20.347Z,23.65
2018-08-31T17:03:49.505Z,23.67
2018-08-31T17:06:18.610Z,23.67
2018-08-31T17:08:48.023Z,23.69
2018-08-31T17:11:17.207Z,23.71
2018-08-31T17:13:46.291Z,23.74
2018-08-31T17:16:15.373Z,23.71
2018-08-31T17:18:44.541Z,23.73
2018-08-31T17:21:13.687Z,23.74
2018-08-31T17:23:42.803Z,23.73
2018-08-31T17:27:17.200Z,23.73
2018-08-31T17:29:47.928Z,23.73
2018-08-31T17:32:22.359Z,23.72
2018-08-31T17:34:56.999Z,23.72
2018-08-31T17:37:31.572Z,23.74
2018-08-31T17:40:00.619Z,23.74
2018-08-31T17:42:32.271Z,23.73
2018-08-31T17:45:01.383Z,23.74
2018-08-31T17:47:30.582Z,23.74
2018-08-31T17:49:59.777Z,23.75
2018-08-31T17:52:28.809Z,23.76
2018-08-31T17:54:57.944Z,23.76
2018-08-31T17:57:27.159Z,23.78
2018-08-31T17:59:56.340Z,23.79
2018-08-31T18:02:25.442Z,23.80
2018-08-31T18:04:54.661Z,23.81
2018-08-31T18:07:23.927Z,23.80
2018-08-31T18:09:58.423Z,23.81
2018-08-31T18:12:32.980Z,23.79
2018-08-31T18:15:04.902Z,23.80
2018-08-31T18:17:34.117Z,23.78
2018-08-31T18:20:03.255Z,23.79
2018-08-31T18:22:32.373Z,23.79
2018-08-31T18:25:01.436Z,23.79
2018-08-31T18:27:30.624Z,23.79
2018-08-31T18:29:59.743Z,23.78
2018-08-31T18:32:28.727Z,23.79
2018-08-31T18:34:57.884Z,23.77
2018-08-31T18:37:26.988Z,23.80
2018-08-31T18:39:56.143Z,23.80
2018-08-31T18:42:25.444Z,23.79
2018-08-31T18:44:54.829Z,23.79
2018-08-31T18:47:23.947Z,23.77
2018-08-31T18:49:53.079Z,23.78
2018-08-31T18:52:22.244Z,23.78
2018-08-31T18:54:51.632Z,23.77
2018-08-31T18:57:20.723Z,23.78
2018-08-31T18:59:49.823Z,23.78
2018-08-31T19:02:18.940Z,23.77
2018-08-31T19:04:48.115Z,23.78
2018-08-31T19:07:17.202Z,23.78
2018-08-31T19:09:46.256Z,23.78
2018-08-31T19:12:15.397Z,23.77
2018-08-31T19:14:44.605Z,23.76
2018-08-31T19:17:13.700Z,23.76
2018-08-31T19:19:42.874Z,23.76
2018-08-31T19:22:11.996Z,23.79
2018-08-31T19:24:41.069Z,23.78
2018-08-31T19:27:10.583Z,23.79
2018-08-31T19:29:39.659Z,23.78
2018-08-31T19:32:08.769Z,23.77
2018-08-31T19:34:37.920Z,23.75
2018-08-31T19:37:07.128Z,23.73
2018-08-31T19:39:36.690Z,23.72
2018-08-31T19:42:05.868Z,23.73
2018-08-31T19:44:35.088Z,23.71
2018-08-31T19:47:04.264Z,23.70
2018-08-31T19:49:33.391Z,23.68
2018-08-31T19:52:02.582Z,23.67
2018-08-31T19:54:31.677Z,23.68
2018-08-31T19:57:00.756Z,23.65
2018-08-31T19:59:29.971Z,23.67
2018-08-31T20:01:59.082Z,23.65
2018-08-31T20:04:28.333Z,23.64
2018-08-31T20:06:59.183Z,23.63
2018-08-31T20:09:28.271Z,23.60
2018-08-31T20:11:57.432Z,23.62
2018-08-31T20:14:26.600Z,23.61
2018-08-31T20:16:55.952Z,23.60
2018-08-31T20:19:25.038Z,23.60
2018-08-31T20:21:54.176Z,23.59
2018-08-31T20:24:23.330Z,23.59
2018-08-31T20:26:52.459Z,23.60
2018-08-31T20:29:21.650Z,23.59
2018-08-31T20:31:50.921Z,23.59
2018-08-31T20:34:20.048Z,23.58
2018-08-31T20:36:49.231Z,23.58
2018-08-31T20:39:18.324Z,23.58
2018-08-31T20:41:47.415Z,23.57
2018-08-31T20:44:17.599Z,23.57
2018-08-31T20:46:46.752Z,23.56
2018-08-31T20:49:15.956Z,23.56
2018-08-31T20:51:45.175Z,23.56
2018-08-31T20:54:14.612Z,23.56
2018-08-31T20:56:43.926Z,23.53
2018-08-31T20:59:13.060Z,23.53
2018-08-31T21:01:42.419Z,23.54
2018-08-31T21:04:11.811Z,23.54
2018-08-31T21:06:40.976Z,23.54
2018-08-31T21:09:11.161Z,23.52
2018-08-31T21:11:40.486Z,23.54
2018-08-31T21:14:09.616Z,23.53
2018-08-31T21:16:38.800Z,23.51
2018-08-31T21:19:08.004Z,23.51
2018-08-31T21:21:36.969Z,23.52
2018-08-31T21:24:06.279Z,23.52
2018-08-31T21:26:35.494Z,23.52
2018-08-31T21:29:04.634Z,23.52
2018-08-31T21:31:33.731Z,23.52
2018-08-31T21:34:02.831Z,23.52
2018-08-31T21:36:31.921Z,23.52
2018-08-31T21:39:01.055Z,23.51
2018-08-31T21:41:30.244Z,23.49
2018-08-31T21:43:59.460Z,23.50
2018-08-31T21:46:28.631Z,23.50
2018-08-31T21:48:57.760Z,23.50
2018-08-31T21:51:26.863Z,23.50
2018-08-31T21:53:55.978Z,23.48
2018-08-31T21:56:25.051Z,23.47
2018-08-31T21:58:54.219Z,23.48
2018-08-31T22:01:28.649Z,23.47
2018-08-31T22:03:57.959Z,23.47
2018-08-31T22:06:27.059Z,23.46
2018-08-31T22:08:56.268Z,23.46
2018-08-31T22:11:25.347Z,23.45
2018-08-31T22:13:54.425Z,23.46
2018-08-31T22:16:23.519Z,23.45
2018-08-31T22:18:52.728Z,23.45
2018-08-31T22:21:21.849Z,23.44
2018-08-31T22:23:50.924Z,23.44
2018-08-31T22:26:20.120Z,23.44
2018-08-31T22:28:49.227Z,23.44
2018-08-31T22:31:18.397Z,23.44
2018-08-31T22:33:47.536Z,23.42
2018-08-31T22:36:16.729Z,23.43
2018-08-31T22:38:45.820Z,23.43
2018-08-31T22:41:15.176Z,23.43
2018-08-31T22:43:51.018Z,23.41
2018-08-31T22:46:21.780Z,23.41
2018-08-31T22:48:51.352Z,23.40
2018-08-31T22:51:21.289Z,23.39
2018-08-31T22:53:50.667Z,23.41
2018-08-31T22:56:19.821Z,23.41
2018-08-31T22:58:48.929Z,23.41
2018-08-31T23:01:18.008Z,23.41
2018-08-31T23:03:47.118Z,23.38
2018-08-31T23:06:21.739Z,23.39
2018-08-31T23:08:50.820Z,23.38
2018-08-31T23:11:19.919Z,23.38
2018-08-31T23:13:49.093Z,23.38
2018-08-31T23:16:18.315Z,23.34
2018-08-31T23:18:47.432Z,23.39
2018-08-31T23:21:16.532Z,23.39
2018-08-31T23:23:46.685Z,23.38
2018-08-31T23:26:15.854Z,23.38
2018-08-31T23:28:45.012Z,23.38
2018-08-31T23:31:14.096Z,23.38
2018-08-31T23:33:43.364Z,23.37
2018-08-31T23:36:12.491Z,23.37
2018-08-31T23:38:41.622Z,23.36
2018-08-31T23:41:10.721Z,23.35
2018-08-31T23:43:39.782Z,23.36
2018-08-31T23:46:08.899Z,23.36
2018-08-31T23:48:37.976Z,23.36
2018-08-31T23:51:07.077Z,23.35
2018-08-31T23:53:36.187Z,23.35
2018-08-31T23:56:05.355Z,23.35
2018-08-31T23:58:34.518Z,23.33
